sensor_id;sensor_type;location;lat;lon;timestamp;pressure;altitude;pressure_sealevel;temperature;humidity
57779;BME280;43608;49.486;9.640;2022-08-01T00:00:24;98613.91;;;18.96;63.74
57779;BME280;43608;49.486;9.640;2022-08-01T00:00:54;98638.50;;;19.08;63.67
57779;BME280;43608;49.486;9.640;2022-08-01T00:01:25;98621.91;;;18.98;63.41
57779;BME280;43608;49.486;9.640;2022-08-01T00:01:55;98636.78;;;19.07;63.84
57779;BME280;43608;49.486;9.640;2022-08-01T00:02:26;98634.09;;;19.07;63.89
57779;BME280;43608;49.486;9.640;2022-08-01T00:02:57;98638.56;;;19.06;64.00
57779;BME280;43608;49.486;9.640;2022-08-01T00:03:27;98634.25;;;19.02;63.87
57779;BME280;43608;49.486;9.640;2022-08-01T00:03:57;98636.84;;;19.05;63.96
57779;BME280;43608;49.486;9.640;2022-08-01T00:04:28;98640.47;;;19.04;63.89
57779;BME280;43608;49.486;9.640;2022-08-01T00:04:58;98635.25;;;18.99;64.02
57779;BME280;43608;49.486;9.640;2022-08-01T00:05:30;98637.06;;;18.99;63.86
57779;BME280;43608;49.486;9.640;2022-08-01T00:06:00;98642.31;;;19.02;64.05
57779;BME280;43608;49.486;9.640;2022-08-01T00:06:31;98643.25;;;19.01;63.84
57779;BME280;43608;49.486;9.640;2022-08-01T00:07:02;98619.59;;;18.87;64.11
57779;BME280;43608;49.486;9.640;2022-08-01T00:07:33;98643.31;;;18.99;64.29
57779;BME280;43608;49.486;9.640;2022-08-01T00:08:04;98625.81;;;18.89;64.23
57779;BME280;43608;49.486;9.640;2022-08-01T00:08:34;98644.31;;;18.97;64.45
57779;BME280;43608;49.486;9.640;2022-08-01T00:09:04;98623.16;;;18.88;64.45
57779;BME280;43608;49.486;9.640;2022-08-01T00:09:35;98637.19;;;18.96;64.34
57779;BME280;43608;49.486;9.640;2022-08-01T00:10:14;98615.25;;;18.83;64.35
57779;BME280;43608;49.486;9.640;2022-08-01T00:10:45;98635.56;;;18.92;64.46
57779;BME280;43608;49.486;9.640;2022-08-01T00:11:15;98629.31;;;18.91;64.37
57779;BME280;43608;49.486;9.640;2022-08-01T00:11:45;98645.38;;;18.93;64.25
57779;BME280;43608;49.486;9.640;2022-08-01T00:12:16;98605.09;;;18.69;64.39
57779;BME280;43608;49.486;9.640;2022-08-01T00:12:46;98613.78;;;18.76;64.49
57779;BME280;43608;49.486;9.640;2022-08-01T00:13:17;98641.84;;;18.91;64.67
57779;BME280;43608;49.486;9.640;2022-08-01T00:13:47;98643.72;;;18.89;64.57
57779;BME280;43608;49.486;9.640;2022-08-01T00:14:17;98620.91;;;18.77;64.76
57779;BME280;43608;49.486;9.640;2022-08-01T00:14:48;98644.63;;;18.88;64.79
57779;BME280;43608;49.486;9.640;2022-08-01T00:15:18;98640.25;;;18.85;64.85
57779;BME280;43608;49.486;9.640;2022-08-01T00:15:49;98632.34;;;18.82;64.71
57779;BME280;43608;49.486;9.640;2022-08-01T00:16:19;98639.34;;;18.86;64.55
57779;BME280;43608;49.486;9.640;2022-08-01T00:16:52;98640.25;;;18.85;64.69
57779;BME280;43608;49.486;9.640;2022-08-01T00:17:23;98634.97;;;18.83;64.82
57779;BME280;43608;49.486;9.640;2022-08-01T00:17:53;98639.41;;;18.85;64.66
57779;BME280;43608;49.486;9.640;2022-08-01T00:18:23;98639.41;;;18.85;64.89
57779;BME280;43608;49.486;9.640;2022-08-01T00:18:54;98614.22;;;18.63;64.62
57779;BME280;43608;49.486;9.640;2022-08-01T00:19:25;98626.34;;;18.75;64.44
57779;BME280;43608;49.486;9.640;2022-08-01T00:19:55;98635.06;;;18.80;64.73
57779;BME280;43608;49.486;9.640;2022-08-01T00:20:25;98612.22;;;18.70;64.86
57779;BME280;43608;49.486;9.640;2022-08-01T00:20:56;98628.06;;;18.76;64.74
57779;BME280;43608;49.486;9.640;2022-08-01T00:21:26;98616.59;;;18.73;64.58
57779;BME280;43608;49.486;9.640;2022-08-01T00:21:57;98639.44;;;18.83;64.94
57779;BME280;43608;49.486;9.640;2022-08-01T00:22:27;98634.97;;;18.83;64.55
57779;BME280;43608;49.486;9.640;2022-08-01T00:22:57;98611.44;;;18.66;64.85
57779;BME280;43608;49.486;9.640;2022-08-01T00:23:28;98635.81;;;18.84;64.83
57779;BME280;43608;49.486;9.640;2022-08-01T00:23:58;98638.50;;;18.84;64.89
57779;BME280;43608;49.486;9.640;2022-08-01T00:24:29;98634.13;;;18.81;65.09
57779;BME280;43608;49.486;9.640;2022-08-01T00:25:00;98619.22;;;18.74;65.04
57779;BME280;43608;49.486;9.640;2022-08-01T00:25:30;98628.00;;;18.78;65.02
57779;BME280;43608;49.486;9.640;2022-08-01T00:26:01;98634.38;;;18.75;65.01
57779;BME280;43608;49.486;9.640;2022-08-01T00:26:31;98635.31;;;18.74;65.10
57779;BME280;43608;49.486;9.640;2022-08-01T00:27:01;98635.13;;;18.79;64.92
57779;BME280;43608;49.486;9.640;2022-08-01T00:27:32;98649.38;;;18.81;65.12
57779;BME280;43608;49.486;9.640;2022-08-01T00:28:03;98618.66;;;18.64;65.19
57779;BME280;43608;49.486;9.640;2022-08-01T00:28:33;98636.25;;;18.73;65.40
57779;BME280;43608;49.486;9.640;2022-08-01T00:29:04;98647.63;;;18.80;65.35
57779;BME280;43608;49.486;9.640;2022-08-01T00:29:34;98647.63;;;18.80;65.47
57779;BME280;43608;49.486;9.640;2022-08-01T00:30:05;98625.66;;;18.69;65.52
57779;BME280;43608;49.486;9.640;2022-08-01T00:30:36;98647.69;;;18.78;65.55
57779;BME280;43608;49.486;9.640;2022-08-01T00:31:06;98644.16;;;18.76;65.50
57779;BME280;43608;49.486;9.640;2022-08-01T00:31:37;98646.84;;;18.76;65.36
57779;BME280;43608;49.486;9.640;2022-08-01T00:32:07;98646.84;;;18.76;65.61
57779;BME280;43608;49.486;9.640;2022-08-01T00:32:38;98617.97;;;18.59;65.37
57779;BME280;43608;49.486;9.640;2022-08-01T00:33:08;98643.31;;;18.76;65.64
57779;BME280;43608;49.486;9.640;2022-08-01T00:33:38;98646.06;;;18.74;65.44
57779;BME280;43608;49.486;9.640;2022-08-01T00:34:09;98643.38;;;18.74;65.74
57779;BME280;43608;49.486;9.640;2022-08-01T00:34:39;98655.91;;;18.74;65.47
57779;BME280;43608;49.486;9.640;2022-08-01T00:35:10;98640.78;;;18.71;65.70
57779;BME280;43608;49.486;9.640;2022-08-01T00:35:40;98650.53;;;18.74;65.68
57779;BME280;43608;49.486;9.640;2022-08-01T00:36:11;98646.97;;;18.73;65.74
57779;BME280;43608;49.486;9.640;2022-08-01T00:36:41;98640.84;;;18.70;65.54
57779;BME280;43608;49.486;9.640;2022-08-01T00:37:11;98654.19;;;18.73;65.47
57779;BME280;43608;49.486;9.640;2022-08-01T00:37:42;98648.81;;;18.73;65.72
57779;BME280;43608;49.486;9.640;2022-08-01T00:38:14;98651.50;;;18.73;65.59
57779;BME280;43608;49.486;9.640;2022-08-01T00:38:44;98639.06;;;18.70;65.59
57779;BME280;43608;49.486;9.640;2022-08-01T00:39:15;98632.09;;;18.64;65.35
57779;BME280;43608;49.486;9.640;2022-08-01T00:39:45;98644.38;;;18.72;65.51
57779;BME280;43608;49.486;9.640;2022-08-01T00:40:15;98648.81;;;18.73;65.22
57779;BME280;43608;49.486;9.640;2022-08-01T00:40:46;98649.72;;;18.72;65.04
57779;BME280;43608;49.486;9.640;2022-08-01T00:41:16;98627.66;;;18.63;65.55
57779;BME280;43608;49.486;9.640;2022-08-01T00:41:46;98649.72;;;18.72;65.47
57779;BME280;43608;49.486;9.640;2022-08-01T00:42:17;98644.44;;;18.70;65.50
57779;BME280;43608;49.486;9.640;2022-08-01T00:42:47;98648.03;;;18.69;65.38
57779;BME280;43608;49.486;9.640;2022-08-01T00:43:18;98645.34;;;18.69;65.56
57779;BME280;43608;49.486;9.640;2022-08-01T00:43:48;98624.41;;;18.55;65.62
57779;BME280;43608;49.486;9.640;2022-08-01T00:44:18;98633.09;;;18.62;65.14
57779;BME280;43608;49.486;9.640;2022-08-01T00:44:49;98646.34;;;18.66;65.64
57779;BME280;43608;49.486;9.640;2022-08-01T00:45:22;98638.28;;;18.66;65.79
57779;BME280;43608;49.486;9.640;2022-08-01T00:45:52;98647.28;;;18.65;65.85
57779;BME280;43608;49.486;9.640;2022-08-01T00:46:23;98614.78;;;18.49;65.70
57779;BME280;43608;49.486;9.640;2022-08-01T00:46:53;98636.00;;;18.56;65.78
57779;BME280;43608;49.486;9.640;2022-08-01T00:47:24;98642.84;;;18.64;65.89
57779;BME280;43608;49.486;9.640;2022-08-01T00:47:54;98601.75;;;18.39;65.85
57779;BME280;43608;49.486;9.640;2022-08-01T00:48:24;98644.75;;;18.61;65.89
57779;BME280;43608;49.486;9.640;2022-08-01T00:48:55;98613.25;;;18.42;65.99
57779;BME280;43608;49.486;9.640;2022-08-01T00:49:25;98632.59;;;18.50;66.08
57779;BME280;43608;49.486;9.640;2022-08-01T00:49:55;98621.19;;;18.45;66.03
57779;BME280;43608;49.486;9.640;2022-08-01T00:50:26;98630.75;;;18.53;65.88
57779;BME280;43608;49.486;9.640;2022-08-01T00:50:57;98637.88;;;18.54;65.76
57779;BME280;43608;49.486;9.640;2022-08-01T00:51:27;98605.31;;;18.39;66.02
57779;BME280;43608;49.486;9.640;2022-08-01T00:51:58;98614.16;;;18.41;65.91
57779;BME280;43608;49.486;9.640;2022-08-01T00:52:29;98641.25;;;18.59;65.94
57779;BME280;43608;49.486;9.640;2022-08-01T00:53:01;98641.34;;;18.57;66.16
57779;BME280;43608;49.486;9.640;2022-08-01T00:53:31;98605.25;;;18.41;66.21
57779;BME280;43608;49.486;9.640;2022-08-01T00:54:02;98637.81;;;18.55;66.34
57779;BME280;43608;49.486;9.640;2022-08-01T00:54:32;98627.38;;;18.47;66.42
57779;BME280;43608;49.486;9.640;2022-08-01T00:55:03;98631.63;;;18.53;66.56
57779;BME280;43608;49.486;9.640;2022-08-01T00:55:33;98636.19;;;18.51;66.60
57779;BME280;43608;49.486;9.640;2022-08-01T00:56:04;98631.69;;;18.52;66.66
57779;BME280;43608;49.486;9.640;2022-08-01T00:56:34;98638.88;;;18.51;66.75
57779;BME280;43608;49.486;9.640;2022-08-01T00:57:05;98636.25;;;18.49;66.63
57779;BME280;43608;49.486;9.640;2022-08-01T00:57:36;98623.19;;;18.40;66.88
57779;BME280;43608;49.486;9.640;2022-08-01T00:58:07;98638.09;;;18.47;66.84
57779;BME280;43608;49.486;9.640;2022-08-01T00:58:37;98636.41;;;18.45;66.87
57779;BME280;43608;49.486;9.640;2022-08-01T00:59:07;98643.59;;;18.44;66.95
57779;BME280;43608;49.486;9.640;2022-08-01T00:59:39;98618.13;;;18.31;66.86
57779;BME280;43608;49.486;9.640;2022-08-01T01:00:11;98610.31;;;18.25;67.05
57779;BME280;43608;49.486;9.640;2022-08-01T01:00:41;98627.00;;;18.33;67.04
57779;BME280;43608;49.486;9.640;2022-08-01T01:01:12;98618.25;;;18.28;67.30
57779;BME280;43608;49.486;9.640;2022-08-01T01:01:43;98639.38;;;18.37;67.30
57779;BME280;43608;49.486;9.640;2022-08-01T01:02:13;98619.16;;;18.27;67.24
57779;BME280;43608;49.486;9.640;2022-08-01T01:02:44;98634.41;;;18.26;67.10
57779;BME280;43608;49.486;9.640;2022-08-01T01:03:14;98644.88;;;18.34;67.15
57779;BME280;43608;49.486;9.640;2022-08-01T01:03:45;98637.81;;;18.31;67.23
57779;BME280;43608;49.486;9.640;2022-08-01T01:04:16;98630.94;;;18.23;67.32
57779;BME280;43608;49.486;9.640;2022-08-01T01:04:46;98639.72;;;18.28;67.16
57779;BME280;43608;49.486;9.640;2022-08-01T01:05:17;98646.78;;;18.30;67.17
57779;BME280;43608;49.486;9.640;2022-08-01T01:07:19;98642.53;;;18.23;67.60
57779;BME280;43608;49.486;9.640;2022-08-01T01:08:39;98637.38;;;18.19;67.91
57779;BME280;43608;49.486;9.640;2022-08-01T01:10:12;98647.31;;;18.15;67.87
57779;BME280;43608;49.486;9.640;2022-08-01T01:11:08;98641.44;;;18.05;68.26
57779;BME280;43608;49.486;9.640;2022-08-01T01:12:01;98644.91;;;18.07;68.42
57779;BME280;43608;49.486;9.640;2022-08-01T01:12:46;98647.72;;;18.04;68.77
57779;BME280;43608;49.486;9.640;2022-08-01T01:13:30;98641.50;;;18.02;68.69
57779;BME280;43608;49.486;9.640;2022-08-01T01:14:16;98645.13;;;18.01;68.93
57779;BME280;43608;49.486;9.640;2022-08-01T01:15:04;98638.06;;;17.98;69.00
57779;BME280;43608;49.486;9.640;2022-08-01T01:16:03;98633.94;;;17.88;68.95
57779;BME280;43608;49.486;9.640;2022-08-01T01:16:38;98642.63;;;17.96;68.94
57779;BME280;43608;49.486;9.640;2022-08-01T01:17:11;98605.84;;;17.73;68.85
57779;BME280;43608;49.486;9.640;2022-08-01T01:17:55;98633.06;;;17.88;68.92
57779;BME280;43608;49.486;9.640;2022-08-01T01:19:03;98647.09;;;17.96;68.87
57779;BME280;43608;49.486;9.640;2022-08-01T01:19:39;98636.56;;;17.90;69.17
57779;BME280;43608;49.486;9.640;2022-08-01T01:20:13;98647.22;;;17.93;69.33
57779;BME280;43608;49.486;9.640;2022-08-01T01:20:51;98643.63;;;17.92;69.21
57779;BME280;43608;49.486;9.640;2022-08-01T01:21:44;98649.91;;;17.91;69.22
57779;BME280;43608;49.486;9.640;2022-08-01T01:22:22;98647.28;;;17.90;69.28
57779;BME280;43608;49.486;9.640;2022-08-01T01:23:14;98643.78;;;17.88;69.44
57779;BME280;43608;49.486;9.640;2022-08-01T01:27:10;98641.47;;;17.77;69.89
57779;BME280;43608;49.486;9.640;2022-08-01T01:28:31;98657.63;;;17.74;69.94
57779;BME280;43608;49.486;9.640;2022-08-01T01:29:56;98630.66;;;17.53;70.19
57779;BME280;43608;49.486;9.640;2022-08-01T01:30:30;98659.59;;;17.68;70.06
57779;BME280;43608;49.486;9.640;2022-08-01T01:31:02;98610.66;;;17.37;70.08
57779;BME280;43608;49.486;9.640;2022-08-01T01:31:38;98658.84;;;17.65;70.29
57779;BME280;43608;49.486;9.640;2022-08-01T01:32:18;98657.09;;;17.64;70.22
57779;BME280;43608;49.486;9.640;2022-08-01T01:32:51;98658.88;;;17.63;70.39
57779;BME280;43608;49.486;9.640;2022-08-01T01:33:25;98658.94;;;17.62;70.47
57779;BME280;43608;49.486;9.640;2022-08-01T01:33:59;98641.41;;;17.51;70.49
57779;BME280;43608;49.486;9.640;2022-08-01T01:34:37;98637.09;;;17.47;70.38
57779;BME280;43608;49.486;9.640;2022-08-01T01:35:17;98655.44;;;17.60;70.60
57779;BME280;43608;49.486;9.640;2022-08-01T01:35:57;98659.97;;;17.58;70.60
57779;BME280;43608;49.486;9.640;2022-08-01T01:36:30;98647.81;;;17.47;70.58
57779;BME280;43608;49.486;9.640;2022-08-01T01:37:04;98646.78;;;17.51;70.84
57779;BME280;43608;49.486;9.640;2022-08-01T01:37:39;98650.47;;;17.47;70.79
57779;BME280;43608;49.486;9.640;2022-08-01T01:38:18;98656.50;;;17.54;70.87
57779;BME280;43608;49.486;9.640;2022-08-01T01:38:50;98667.28;;;17.53;70.88
57779;BME280;43608;49.486;9.640;2022-08-01T01:39:22;98656.69;;;17.49;70.95
57779;BME280;43608;49.486;9.640;2022-08-01T01:39:55;98658.47;;;17.49;70.79
57779;BME280;43608;49.486;9.640;2022-08-01T01:40:27;98670.88;;;17.53;70.71
57779;BME280;43608;49.486;9.640;2022-08-01T01:41:00;98649.69;;;17.44;70.80
57779;BME280;43608;49.486;9.640;2022-08-01T01:41:32;98668.22;;;17.51;70.96
57779;BME280;43608;49.486;9.640;2022-08-01T01:42:04;98668.22;;;17.51;70.92
57779;BME280;43608;49.486;9.640;2022-08-01T01:42:36;98634.00;;;17.33;70.90
57779;BME280;43608;49.486;9.640;2022-08-01T01:43:10;98668.38;;;17.47;71.00
57779;BME280;43608;49.486;9.640;2022-08-01T01:43:42;98630.34;;;17.36;70.80
57779;BME280;43608;49.486;9.640;2022-08-01T01:44:14;98664.66;;;17.51;70.86
57779;BME280;43608;49.486;9.640;2022-08-01T01:44:47;98658.53;;;17.47;70.76
57779;BME280;43608;49.486;9.640;2022-08-01T01:45:18;98669.09;;;17.52;70.74
57779;BME280;43608;49.486;9.640;2022-08-01T01:45:50;98669.09;;;17.52;70.88
57779;BME280;43608;49.486;9.640;2022-08-01T01:46:25;98649.94;;;17.38;70.90
57779;BME280;43608;49.486;9.640;2022-08-01T01:46:57;98659.31;;;17.51;70.91
57779;BME280;43608;49.486;9.640;2022-08-01T01:47:31;98661.97;;;17.51;70.88
57779;BME280;43608;49.486;9.640;2022-08-01T01:48:03;98664.78;;;17.46;70.89
57779;BME280;43608;49.486;9.640;2022-08-01T01:48:35;98626.06;;;17.30;70.91
57779;BME280;43608;49.486;9.640;2022-08-01T01:49:08;98653.16;;;17.47;70.69
57779;BME280;43608;49.486;9.640;2022-08-01T01:49:44;98635.75;;;17.34;70.75
57779;BME280;43608;49.486;9.640;2022-08-01T01:50:15;98626.88;;;17.32;70.70
57779;BME280;43608;49.486;9.640;2022-08-01T01:50:49;98658.47;;;17.49;70.80
57779;BME280;43608;49.486;9.640;2022-08-01T01:51:22;98640.00;;;17.40;70.68
57779;BME280;43608;49.486;9.640;2022-08-01T01:51:56;98659.31;;;17.51;70.65
57779;BME280;43608;49.486;9.640;2022-08-01T01:52:27;98648.72;;;17.46;70.69
57779;BME280;43608;49.486;9.640;2022-08-01T01:53:01;98639.88;;;17.44;70.71
57779;BME280;43608;49.486;9.640;2022-08-01T01:53:33;98660.16;;;17.51;70.64
57779;BME280;43608;49.486;9.640;2022-08-01T01:54:06;98651.38;;;17.48;70.67
57779;BME280;43608;49.486;9.640;2022-08-01T01:54:40;98660.16;;;17.51;70.69
57779;BME280;43608;49.486;9.640;2022-08-01T01:55:13;98659.31;;;17.51;70.72
57779;BME280;43608;49.486;9.640;2022-08-01T01:55:48;98646.28;;;17.40;70.66
57779;BME280;43608;49.486;9.640;2022-08-01T01:56:20;98661.16;;;17.49;70.75
57779;BME280;43608;49.486;9.640;2022-08-01T01:56:52;98669.19;;;17.49;70.68
57779;BME280;43608;49.486;9.640;2022-08-01T01:57:23;98668.31;;;17.48;70.81
57779;BME280;43608;49.486;9.640;2022-08-01T01:57:55;98664.00;;;17.44;70.80
57779;BME280;43608;49.486;9.640;2022-08-01T01:58:28;98661.38;;;17.43;70.77
57779;BME280;43608;49.486;9.640;2022-08-01T01:59:02;98662.13;;;17.46;70.89
57779;BME280;43608;49.486;9.640;2022-08-01T01:59:36;98667.53;;;17.45;70.95
57779;BME280;43608;49.486;9.640;2022-08-01T02:00:10;98671.13;;;17.44;71.03
57779;BME280;43608;49.486;9.640;2022-08-01T02:00:42;98668.56;;;17.41;71.11
57779;BME280;43608;49.486;9.640;2022-08-01T02:01:14;98674.78;;;17.41;71.15
57779;BME280;43608;49.486;9.640;2022-08-01T02:01:48;98666.81;;;17.40;71.24
57779;BME280;43608;49.486;9.640;2022-08-01T02:02:22;98673.97;;;17.39;70.99
57779;BME280;43608;49.486;9.640;2022-08-01T02:02:53;98673.13;;;17.37;71.22
57779;BME280;43608;49.486;9.640;2022-08-01T02:03:27;98669.66;;;17.35;71.63
57779;BME280;43608;49.486;9.640;2022-08-01T02:03:58;98673.19;;;17.36;71.57
57779;BME280;43608;49.486;9.640;2022-08-01T02:04:30;98666.06;;;17.34;71.46
57779;BME280;43608;49.486;9.640;2022-08-01T02:05:03;98671.50;;;17.33;71.56
57779;BME280;43608;49.486;9.640;2022-08-01T02:05:36;98668.88;;;17.31;71.55
57779;BME280;43608;49.486;9.640;2022-08-01T02:06:08;98646.13;;;17.16;71.79
57779;BME280;43608;49.486;9.640;2022-08-01T02:06:39;98666.25;;;17.30;71.43
57779;BME280;43608;49.486;9.640;2022-08-01T02:07:12;98672.41;;;17.32;71.41
57779;BME280;43608;49.486;9.640;2022-08-01T02:07:44;98613.75;;;16.96;71.37
57779;BME280;43608;49.486;9.640;2022-08-01T02:08:16;98661.94;;;17.24;71.76
57779;BME280;43608;49.486;9.640;2022-08-01T02:08:47;98672.47;;;17.30;71.42
57779;BME280;43608;49.486;9.640;2022-08-01T02:09:20;98645.34;;;17.13;71.51
57779;BME280;43608;49.486;9.640;2022-08-01T02:09:51;98662.00;;;17.23;71.46
57779;BME280;43608;49.486;9.640;2022-08-01T02:10:23;98651.69;;;17.10;71.55
57779;BME280;43608;49.486;9.640;2022-08-01T02:10:55;98676.13;;;17.28;71.55
57779;BME280;43608;49.486;9.640;2022-08-01T02:11:46;98678.91;;;17.25;71.78
57779;BME280;43608;49.486;9.640;2022-08-01T02:12:17;98664.84;;;17.16;71.63
57779;BME280;43608;49.486;9.640;2022-08-01T02:12:50;98672.75;;;17.21;71.80
57779;BME280;43608;49.486;9.640;2022-08-01T02:13:20;98677.25;;;17.21;71.83
57779;BME280;43608;49.486;9.640;2022-08-01T02:13:58;98658.81;;;17.10;71.97
57779;BME280;43608;49.486;9.640;2022-08-01T02:14:30;98682.63;;;17.19;71.74
57779;BME280;43608;49.486;9.640;2022-08-01T02:15:04;98676.41;;;17.18;71.89
57779;BME280;43608;49.486;9.640;2022-08-01T02:15:36;98665.94;;;17.11;71.67
57779;BME280;43608;49.486;9.640;2022-08-01T02:16:09;98671.34;;;17.09;72.01
57779;BME280;43608;49.486;9.640;2022-08-01T02:16:47;98676.47;;;17.17;71.89
57779;BME280;43608;49.486;9.640;2022-08-01T02:17:19;98673.97;;;17.11;71.93
57779;BME280;43608;49.486;9.640;2022-08-01T02:17:51;98651.19;;;16.97;71.95
57779;BME280;43608;49.486;9.640;2022-08-01T02:18:23;98689.00;;;17.15;71.84
57779;BME280;43608;49.486;9.640;2022-08-01T02:18:54;98677.44;;;17.14;71.78
57779;BME280;43608;49.486;9.640;2022-08-01T02:19:25;98652.94;;;16.98;71.80
57779;BME280;43608;49.486;9.640;2022-08-01T02:19:56;98682.78;;;17.14;71.88
57779;BME280;43608;49.486;9.640;2022-08-01T02:20:29;98682.78;;;17.14;71.95
57779;BME280;43608;49.486;9.640;2022-08-01T02:21:02;98678.47;;;17.10;71.94
57779;BME280;43608;49.486;9.640;2022-08-01T02:21:57;98681.03;;;17.13;72.18
57779;BME280;43608;49.486;9.640;2022-08-01T02:22:32;98687.25;;;17.14;71.92
57779;BME280;43608;49.486;9.640;2022-08-01T02:23:12;98613.47;;;16.74;71.93
57779;BME280;43608;49.486;9.640;2022-08-01T02:23:43;98672.31;;;17.07;71.96
57779;BME280;43608;49.486;9.640;2022-08-01T02:24:24;98688.97;;;17.16;71.97
57779;BME280;43608;49.486;9.640;2022-08-01T02:25:03;98685.41;;;17.16;72.02
57779;BME280;43608;49.486;9.640;2022-08-01T02:25:46;98690.72;;;17.17;72.01
57779;BME280;43608;49.486;9.640;2022-08-01T02:26:18;98669.59;;;17.08;71.79
57779;BME280;43608;49.486;9.640;2022-08-01T02:26:50;98675.69;;;17.13;71.89
57779;BME280;43608;49.486;9.640;2022-08-01T02:27:33;98664.28;;;17.07;71.92
57779;BME280;43608;49.486;9.640;2022-08-01T02:28:07;98696.00;;;17.21;71.91
57779;BME280;43608;49.486;9.640;2022-08-01T02:28:47;98695.06;;;17.22;71.92
57779;BME280;43608;49.486;9.640;2022-08-01T02:29:27;98689.75;;;17.20;72.02
57779;BME280;43608;49.486;9.640;2022-08-01T02:30:03;98689.69;;;17.22;71.97
57779;BME280;43608;49.486;9.640;2022-08-01T02:30:39;98693.22;;;17.24;72.02
57779;BME280;43608;49.486;9.640;2022-08-01T02:31:14;98694.13;;;17.23;72.05
57779;BME280;43608;49.486;9.640;2022-08-01T02:31:48;98695.91;;;17.24;72.00
57779;BME280;43608;49.486;9.640;2022-08-01T02:32:33;98689.66;;;17.23;72.22
57779;BME280;43608;49.486;9.640;2022-08-01T02:33:08;98675.69;;;17.13;72.04
57779;BME280;43608;49.486;9.640;2022-08-01T02:33:43;98687.00;;;17.23;72.15
57779;BME280;43608;49.486;9.640;2022-08-01T02:34:17;98692.28;;;17.25;72.01
57779;BME280;43608;49.486;9.640;2022-08-01T02:34:50;98694.91;;;17.26;72.34
57779;BME280;43608;49.486;9.640;2022-08-01T02:35:27;98684.38;;;17.20;72.11
57779;BME280;43608;49.486;9.640;2022-08-01T02:35:58;98694.88;;;17.28;72.23
57779;BME280;43608;49.486;9.640;2022-08-01T02:36:33;98698.44;;;17.28;72.12
57779;BME280;43608;49.486;9.640;2022-08-01T02:37:04;98688.66;;;17.27;72.25
57779;BME280;43608;49.486;9.640;2022-08-01T02:37:38;98693.09;;;17.28;72.27
57779;BME280;43608;49.486;9.640;2022-08-01T02:38:10;98695.75;;;17.28;72.35
57779;BME280;43608;49.486;9.640;2022-08-01T02:38:44;98694.88;;;17.28;72.29
57779;BME280;43608;49.486;9.640;2022-08-01T02:39:17;98693.09;;;17.28;72.24
57779;BME280;43608;49.486;9.640;2022-08-01T02:39:52;98693.03;;;17.30;72.27
57779;BME280;43608;49.486;9.640;2022-08-01T02:40:26;98691.31;;;17.27;72.30
57779;BME280;43608;49.486;9.640;2022-08-01T02:41:00;98697.50;;;17.29;72.31
57779;BME280;43608;49.486;9.640;2022-08-01T02:41:38;98686.03;;;17.26;72.37
57779;BME280;43608;49.486;9.640;2022-08-01T02:42:11;98687.81;;;17.25;72.28
57779;BME280;43608;49.486;9.640;2022-08-01T02:42:44;98693.94;;;17.29;72.34
57779;BME280;43608;49.486;9.640;2022-08-01T02:43:20;98680.84;;;17.20;72.01
57779;BME280;43608;49.486;9.640;2022-08-01T02:43:53;98688.69;;;17.26;72.38
57779;BME280;43608;49.486;9.640;2022-08-01T02:44:31;98685.28;;;17.21;72.43
57779;BME280;43608;49.486;9.640;2022-08-01T02:45:04;98675.53;;;17.18;72.52
57779;BME280;43608;49.486;9.640;2022-08-01T02:45:42;98692.28;;;17.25;72.58
57779;BME280;43608;49.486;9.640;2022-08-01T02:46:17;98689.56;;;17.26;72.61
57779;BME280;43608;49.486;9.640;2022-08-01T02:46:54;98696.75;;;17.26;72.74
57779;BME280;43608;49.486;9.640;2022-08-01T02:47:27;98693.09;;;17.27;72.79
57779;BME280;43608;49.486;9.640;2022-08-01T02:48:11;98692.19;;;17.28;72.85
57779;BME280;43608;49.486;9.640;2022-08-01T02:48:43;98644.06;;;16.96;72.92
57779;BME280;43608;49.486;9.640;2022-08-01T02:49:15;98651.91;;;17.03;73.01
57779;BME280;43608;49.486;9.640;2022-08-01T02:49:48;98691.31;;;17.27;73.01
57779;BME280;43608;49.486;9.640;2022-08-01T02:50:20;98680.75;;;17.23;72.96
57779;BME280;43608;49.486;9.640;2022-08-01T02:50:55;98686.03;;;17.26;72.95
57779;BME280;43608;49.486;9.640;2022-08-01T02:51:26;98679.94;;;17.21;73.12
57779;BME280;43608;49.486;9.640;2022-08-01T02:51:59;98693.09;;;17.27;72.93
57779;BME280;43608;49.486;9.640;2022-08-01T02:52:32;98666.91;;;17.08;73.04
57779;BME280;43608;49.486;9.640;2022-08-01T02:53:03;98672.13;;;17.13;73.00
57779;BME280;43608;49.486;9.640;2022-08-01T02:53:37;98694.00;;;17.27;72.97
57779;BME280;43608;49.486;9.640;2022-08-01T02:54:11;98680.84;;;17.20;72.99
57779;BME280;43608;49.486;9.640;2022-08-01T02:54:44;98689.63;;;17.25;73.08
57779;BME280;43608;49.486;9.640;2022-08-01T02:55:17;98671.16;;;17.15;73.08
57779;BME280;43608;49.486;9.640;2022-08-01T02:55:48;98689.56;;;17.26;72.99
57779;BME280;43608;49.486;9.640;2022-08-01T02:56:21;98656.19;;;17.08;73.01
57779;BME280;43608;49.486;9.640;2022-08-01T02:56:53;98688.59;;;17.29;72.82
57779;BME280;43608;49.486;9.640;2022-08-01T02:57:27;98693.09;;;17.28;72.89
57779;BME280;43608;49.486;9.640;2022-08-01T02:58:00;98650.97;;;17.04;72.91
57779;BME280;43608;49.486;9.640;2022-08-01T02:58:32;98690.34;;;17.30;72.90
57779;BME280;43608;49.486;9.640;2022-08-01T02:59:06;98685.00;;;17.30;73.12
57779;BME280;43608;49.486;9.640;2022-08-01T02:59:38;98686.78;;;17.29;72.88
57779;BME280;43608;49.486;9.640;2022-08-01T03:00:10;98678.84;;;17.26;72.79
57779;BME280;43608;49.486;9.640;2022-08-01T03:00:42;98677.25;;;17.21;73.10
57779;BME280;43608;49.486;9.640;2022-08-01T03:01:15;98678.97;;;17.23;73.02
57779;BME280;43608;49.486;9.640;2022-08-01T03:01:47;98685.91;;;17.29;73.20
57779;BME280;43608;49.486;9.640;2022-08-01T03:02:19;98694.75;;;17.32;73.28
57779;BME280;43608;49.486;9.640;2022-08-01T03:02:52;98679.72;;;17.27;73.19
57779;BME280;43608;49.486;9.640;2022-08-01T03:03:25;98689.41;;;17.31;73.21
57779;BME280;43608;49.486;9.640;2022-08-01T03:03:55;98693.84;;;17.32;73.29
57779;BME280;43608;49.486;9.640;2022-08-01T03:04:27;98691.16;;;17.32;73.17